sensor_id;sensor_type;location;lat;lon;timestamp;temperature;humidity
23869;DHT22;12115;47.128;15.422;2022-11-20T00:02:36;3.20;99.90
23869;DHT22;12115;47.128;15.422;2022-11-20T00:05:40;3.20;99.90
23869;DHT22;12115;47.128;15.422;2022-11-20T00:08:45;3.10;99.90
23869;DHT22;12115;47.128;15.422;2022-11-20T00:11:40;3.20;99.90
23869;DHT22;12115;47.128;15.422;2022-11-20T00:15:13;3.20;99.90
23869;DHT22;12115;47.128;15.422;2022-11-20T00:17:59;3.20;99.90
23869;DHT22;12115;47.128;15.422;2022-11-20T00:21:06;3.20;99.90
23869;DHT22;12115;47.128;15.422;2022-11-20T00:28:01;3.10;99.90
23869;DHT22;12115;47.128;15.422;2022-11-20T00:30:47;3.10;99.90
23869;DHT22;12115;47.128;15.422;2022-11-20T00:33:40;3.10;99.90
23869;DHT22;12115;47.128;15.422;2022-11-20T00:36:47;3.20;99.90
23869;DHT22;12115;47.128;15.422;2022-11-20T00:40:12;3.20;99.90
23869;DHT22;12115;47.128;15.422;2022-11-20T00:43:06;3.20;99.90
23869;DHT22;12115;47.128;15.422;2022-11-20T00:46:30;3.20;99.90
23869;DHT22;12115;47.128;15.422;2022-11-20T00:49:47;3.20;99.90
23869;DHT22;12115;47.128;15.422;2022-11-20T00:52:47;3.20;99.90
23869;DHT22;12115;47.128;15.422;2022-11-20T00:55:32;3.10;99.90
23869;DHT22;12115;47.128;15.422;2022-11-20T00:58:40;3.10;99.90
23869;DHT22;12115;47.128;15.422;2022-11-20T01:01:48;3.10;99.90
23869;DHT22;12115;47.128;15.422;2022-11-20T01:04:27;3.10;99.90
23869;DHT22;12115;47.128;15.422;2022-11-20T01:07:27;3.10;99.90
23869;DHT22;12115;47.128;15.422;2022-11-20T01:10:37;2.90;99.90
23869;DHT22;12115;47.128;15.422;2022-11-20T01:13:27;3.00;99.90
23869;DHT22;12115;47.128;15.422;2022-11-20T01:17:11;3.00;99.90
23869;DHT22;12115;47.128;15.422;2022-11-20T01:19:49;3.00;99.90
23869;DHT22;12115;47.128;15.422;2022-11-20T01:22:33;3.00;99.90
23869;DHT22;12115;47.128;15.422;2022-11-20T01:25:22;3.10;99.90
23869;DHT22;12115;47.128;15.422;2022-11-20T01:28:25;3.10;99.90
23869;DHT22;12115;47.128;15.422;2022-11-20T01:34:35;3.20;99.90
23869;DHT22;12115;47.128;15.422;2022-11-20T01:37:32;3.30;99.90
23869;DHT22;12115;47.128;15.422;2022-11-20T01:40:53;3.20;99.90
23869;DHT22;12115;47.128;15.422;2022-11-20T01:43:42;3.20;99.90
23869;DHT22;12115;47.128;15.422;2022-11-20T01:46:42;3.20;99.90
23869;DHT22;12115;47.128;15.422;2022-11-20T01:49:52;3.20;99.90
23869;DHT22;12115;47.128;15.422;2022-11-20T01:52:50;3.30;99.90
23869;DHT22;12115;47.128;15.422;2022-11-20T01:55:59;3.30;99.90
23869;DHT22;12115;47.128;15.422;2022-11-20T01:59:02;3.30;99.90
23869;DHT22;12115;47.128;15.422;2022-11-20T02:02:20;3.40;99.90
23869;DHT22;12115;47.128;15.422;2022-11-20T02:05:38;3.40;99.90
23869;DHT22;12115;47.128;15.422;2022-11-20T02:08:37;3.30;99.90
23869;DHT22;12115;47.128;15.422;2022-11-20T02:11:36;3.30;99.90
23869;DHT22;12115;47.128;15.422;2022-11-20T02:14:39;3.30;99.90
23869;DHT22;12115;47.128;15.422;2022-11-20T02:24:10;3.40;99.90
23869;DHT22;12115;47.128;15.422;2022-11-20T02:27:13;3.40;99.90
23869;DHT22;12115;47.128;15.422;2022-11-20T02:29:59;3.40;99.90
23869;DHT22;12115;47.128;15.422;2022-11-20T02:33:19;3.30;99.90
23869;DHT22;12115;47.128;15.422;2022-11-20T02:36:31;3.40;99.90
23869;DHT22;12115;47.128;15.422;2022-11-20T02:39:37;3.40;99.90
23869;DHT22;12115;47.128;15.422;2022-11-20T02:42:52;3.40;99.90
23869;DHT22;12115;47.128;15.422;2022-11-20T02:45:53;3.40;99.90
23869;DHT22;12115;47.128;15.422;2022-11-20T02:48:36;3.40;99.90
23869;DHT22;12115;47.128;15.422;2022-11-20T02:52:03;3.40;99.90
23869;DHT22;12115;47.128;15.422;2022-11-20T02:54:39;3.40;99.90
23869;DHT22;12115;47.128;15.422;2022-11-20T03:00:46;3.40;99.90
23869;DHT22;12115;47.128;15.422;2022-11-20T03:03:27;3.50;99.90
23869;DHT22;12115;47.128;15.422;2022-11-20T03:06:34;3.50;99.90
23869;DHT22;12115;47.128;15.422;2022-11-20T03:09:48;3.40;99.90
23869;DHT22;12115;47.128;15.422;2022-11-20T03:12:58;3.40;99.90
23869;DHT22;12115;47.128;15.422;2022-11-20T03:16:15;3.40;99.90
23869;DHT22;12115;47.128;15.422;2022-11-20T03:19:30;3.50;99.90
23869;DHT22;12115;47.128;15.422;2022-11-20T03:22:05;3.50;99.90
23869;DHT22;12115;47.128;15.422;2022-11-20T03:25:34;3.50;99.90
23869;DHT22;12115;47.128;15.422;2022-11-20T03:31:30;3.50;99.90
23869;DHT22;12115;47.128;15.422;2022-11-20T03:34:43;3.50;99.90
23869;DHT22;12115;47.128;15.422;2022-11-20T03:37:34;3.50;99.90
23869;DHT22;12115;47.128;15.422;2022-11-20T03:40:50;3.50;99.90
23869;DHT22;12115;47.128;15.422;2022-11-20T03:43:35;3.50;99.90
23869;DHT22;12115;47.128;15.422;2022-11-20T03:46:27;3.50;99.90
23869;DHT22;12115;47.128;15.422;2022-11-20T03:49:42;3.60;99.90
23869;DHT22;12115;47.128;15.422;2022-11-20T03:52:40;3.60;99.90
23869;DHT22;12115;47.128;15.422;2022-11-20T03:55:13;3.50;99.90
23869;DHT22;12115;47.128;15.422;2022-11-20T03:58:11;3.50;99.90
23869;DHT22;12115;47.128;15.422;2022-11-20T04:01:03;3.50;99.90
23869;DHT22;12115;47.128;15.422;2022-11-20T04:03:44;3.50;99.90
23869;DHT22;12115;47.128;15.422;2022-11-20T04:07:21;3.50;99.90
23869;DHT22;12115;47.128;15.422;2022-11-20T04:10:36;3.50;99.90
23869;DHT22;12115;47.128;15.422;2022-11-20T04:14:04;3.50;99.90
23869;DHT22;12115;47.128;15.422;2022-11-20T04:17:21;3.60;99.90
23869;DHT22;12115;47.128;15.422;2022-11-20T04:20:48;3.50;99.90
23869;DHT22;12115;47.128;15.422;2022-11-20T04:23:42;3.40;99.90
23869;DHT22;12115;47.128;15.422;2022-11-20T04:26:35;3.40;99.90
23869;DHT22;12115;47.128;15.422;2022-11-20T04:29:32;3.40;99.90
23869;DHT22;12115;47.128;15.422;2022-11-20T04:32:33;3.50;99.90
23869;DHT22;12115;47.128;15.422;2022-11-20T04:35:52;3.50;99.90
23869;DHT22;12115;47.128;15.422;2022-11-20T04:39:07;3.50;99.90
23869;DHT22;12115;47.128;15.422;2022-11-20T04:41:53;3.50;99.90
23869;DHT22;12115;47.128;15.422;2022-11-20T04:45:00;3.50;99.90
23869;DHT22;12115;47.128;15.422;2022-11-20T04:47:47;3.50;99.90
23869;DHT22;12115;47.128;15.422;2022-11-20T04:50:34;3.50;99.90
23869;DHT22;12115;47.128;15.422;2022-11-20T04:53:50;3.50;99.90
23869;DHT22;12115;47.128;15.422;2022-11-20T04:59:56;3.50;99.90
23869;DHT22;12115;47.128;15.422;2022-11-20T05:02:52;3.50;99.90
23869;DHT22;12115;47.128;15.422;2022-11-20T05:05:52;3.50;99.90
23869;DHT22;12115;47.128;15.422;2022-11-20T05:09:21;3.50;99.90
23869;DHT22;12115;47.128;15.422;2022-11-20T05:16:24;3.50;99.90
23869;DHT22;12115;47.128;15.422;2022-11-20T05:19:16;3.50;99.90
23869;DHT22;12115;47.128;15.422;2022-11-20T05:22:19;3.50;99.90
23869;DHT22;12115;47.128;15.422;2022-11-20T05:25:27;3.50;99.90
23869;DHT22;12115;47.128;15.422;2022-11-20T05:28:05;3.50;99.90
23869;DHT22;12115;47.128;15.422;2022-11-20T05:31:55;3.50;99.90
23869;DHT22;12115;47.128;15.422;2022-11-20T05:34:54;3.50;99.90
23869;DHT22;12115;47.128;15.422;2022-11-20T05:38:13;3.60;99.90
23869;DHT22;12115;47.128;15.422;2022-11-20T05:41:16;3.50;99.90
23869;DHT22;12115;47.128;15.422;2022-11-20T05:44:34;3.60;99.90
23869;DHT22;12115;47.128;15.422;2022-11-20T05:47:24;3.50;99.90
23869;DHT22;12115;47.128;15.422;2022-11-20T05:50:14;3.50;99.90
23869;DHT22;12115;47.128;15.422;2022-11-20T05:53:12;3.50;99.90
23869;DHT22;12115;47.128;15.422;2022-11-20T05:56:43;3.50;99.90
23869;DHT22;12115;47.128;15.422;2022-11-20T05:59:33;3.50;99.90
23869;DHT22;12115;47.128;15.422;2022-11-20T06:02:23;3.50;99.90
23869;DHT22;12115;47.128;15.422;2022-11-20T06:05:05;3.50;99.90
23869;DHT22;12115;47.128;15.422;2022-11-20T06:07:49;3.50;99.90
23869;DHT22;12115;47.128;15.422;2022-11-20T06:10:35;3.50;99.90
23869;DHT22;12115;47.128;15.422;2022-11-20T06:13:48;3.50;99.90
23869;DHT22;12115;47.128;15.422;2022-11-20T06:16:47;3.50;99.90
23869;DHT22;12115;47.128;15.422;2022-11-20T06:20:03;3.50;99.90
23869;DHT22;12115;47.128;15.422;2022-11-20T06:23:07;3.50;99.90
23869;DHT22;12115;47.128;15.422;2022-11-20T06:29:10;3.50;99.90
23869;DHT22;12115;47.128;15.422;2022-11-20T06:32:23;3.50;99.90
23869;DHT22;12115;47.128;15.422;2022-11-20T06:35:41;3.50;99.90
23869;DHT22;12115;47.128;15.422;2022-11-20T06:38:59;3.50;99.90
23869;DHT22;12115;47.128;15.422;2022-11-20T06:42:25;3.50;99.90
23869;DHT22;12115;47.128;15.422;2022-11-20T06:45:10;3.50;99.90
23869;DHT22;12115;47.128;15.422;2022-11-20T06:48:30;3.60;99.90
23869;DHT22;12115;47.128;15.422;2022-11-20T06:51:25;3.60;99.90
23869;DHT22;12115;47.128;15.422;2022-11-20T06:54:08;3.60;99.90
23869;DHT22;12115;47.128;15.422;2022-11-20T06:57:41;3.60;99.90
23869;DHT22;12115;47.128;15.422;2022-11-20T07:00:33;3.60;99.90
23869;DHT22;12115;47.128;15.422;2022-11-20T07:03:29;3.70;99.90
23869;DHT22;12115;47.128;15.422;2022-11-20T07:06:46;3.70;99.90
23869;DHT22;12115;47.128;15.422;2022-11-20T07:09:55;3.70;99.90
23869;DHT22;12115;47.128;15.422;2022-11-20T07:12:40;3.70;99.90
23869;DHT22;12115;47.128;15.422;2022-11-20T07:15:34;3.80;99.90
23869;DHT22;12115;47.128;15.422;2022-11-20T07:18:26;3.80;99.90
23869;DHT22;12115;47.128;15.422;2022-11-20T07:21:09;3.70;99.90
23869;DHT22;12115;47.128;15.422;2022-11-20T07:23:59;3.70;99.90
23869;DHT22;12115;47.128;15.422;2022-11-20T07:30:07;3.70;99.90
23869;DHT22;12115;47.128;15.422;2022-11-20T07:33:03;3.70;99.90
23869;DHT22;12115;47.128;15.422;2022-11-20T07:35:51;3.70;99.90
23869;DHT22;12115;47.128;15.422;2022-11-20T07:38:33;3.80;99.90
23869;DHT22;12115;47.128;15.422;2022-11-20T07:41:23;3.80;99.90
23869;DHT22;12115;47.128;15.422;2022-11-20T07:44:01;3.90;99.90
23869;DHT22;12115;47.128;15.422;2022-11-20T07:46:50;3.80;99.90
23869;DHT22;12115;47.128;15.422;2022-11-20T07:49:34;3.80;99.90
23869;DHT22;12115;47.128;15.422;2022-11-20T07:52:25;3.80;99.90
23869;DHT22;12115;47.128;15.422;2022-11-20T07:56:14;3.90;99.90
23869;DHT22;12115;47.128;15.422;2022-11-20T07:59:01;3.90;99.90
23869;DHT22;12115;47.128;15.422;2022-11-20T08:01:48;3.90;99.90
23869;DHT22;12115;47.128;15.422;2022-11-20T08:04:37;3.80;99.90
23869;DHT22;12115;47.128;15.422;2022-11-20T08:07:36;3.80;99.90
23869;DHT22;12115;47.128;15.422;2022-11-20T08:10:46;3.70;99.90
23869;DHT22;12115;47.128;15.422;2022-11-20T08:14:10;3.80;99.90
23869;DHT22;12115;47.128;15.422;2022-11-20T08:17:08;3.80;99.90
23869;DHT22;12115;47.128;15.422;2022-11-20T08:19:43;3.80;99.90
23869;DHT22;12115;47.128;15.422;2022-11-20T08:22:33;3.80;99.90
23869;DHT22;12115;47.128;15.422;2022-11-20T08:28:53;3.90;99.90
23869;DHT22;12115;47.128;15.422;2022-11-20T08:31:37;4.00;99.90
23869;DHT22;12115;47.128;15.422;2022-11-20T08:34:39;4.00;99.90
23869;DHT22;12115;47.128;15.422;2022-11-20T08:37:46;4.00;99.90
23869;DHT22;12115;47.128;15.422;2022-11-20T08:40:41;4.00;99.90
23869;DHT22;12115;47.128;15.422;2022-11-20T08:44:10;4.00;99.90
23869;DHT22;12115;47.128;15.422;2022-11-20T08:47:43;4.00;99.90
23869;DHT22;12115;47.128;15.422;2022-11-20T08:50:44;4.10;99.90
23869;DHT22;12115;47.128;15.422;2022-11-20T08:54:06;4.10;99.90
23869;DHT22;12115;47.128;15.422;2022-11-20T08:57:04;4.20;99.90
23869;DHT22;12115;47.128;15.422;2022-11-20T09:02:55;4.20;99.90
23869;DHT22;12115;47.128;15.422;2022-11-20T09:06:06;4.30;99.90
23869;DHT22;12115;47.128;15.422;2022-11-20T09:08:54;4.20;99.90
23869;DHT22;12115;47.128;15.422;2022-11-20T09:11:49;4.30;99.90
23869;DHT22;12115;47.128;15.422;2022-11-20T09:15:01;4.30;99.90
23869;DHT22;12115;47.128;15.422;2022-11-20T09:17:50;4.40;99.90
23869;DHT22;12115;47.128;15.422;2022-11-20T09:21:00;4.40;99.90
23869;DHT22;12115;47.128;15.422;2022-11-20T09:24:26;4.40;99.90
23869;DHT22;12115;47.128;15.422;2022-11-20T09:27:21;4.40;99.90
23869;DHT22;12115;47.128;15.422;2022-11-20T09:33:26;4.40;99.90
23869;DHT22;12115;47.128;15.422;2022-11-20T09:36:30;4.50;99.90
23869;DHT22;12115;47.128;15.422;2022-11-20T09:39:16;4.40;99.90
23869;DHT22;12115;47.128;15.422;2022-11-20T09:46:29;4.50;99.90
23869;DHT22;12115;47.128;15.422;2022-11-20T09:52:52;5.20;99.90
23869;DHT22;12115;47.128;15.422;2022-11-20T09:56:03;6.90;99.90
23869;DHT22;12115;47.128;15.422;2022-11-20T09:59:32;8.90;99.90
23869;DHT22;12115;47.128;15.422;2022-11-20T10:03:23;10.70;99.90
23869;DHT22;12115;47.128;15.422;2022-11-20T10:06:32;11.00;99.90
23869;DHT22;12115;47.128;15.422;2022-11-20T10:09:51;10.20;99.90
23869;DHT22;12115;47.128;15.422;2022-11-20T10:31:03;11.40;99.90
23869;DHT22;12115;47.128;15.422;2022-11-20T10:37:34;10.90;99.90
23869;DHT22;12115;47.128;15.422;2022-11-20T10:41:06;12.30;99.90
23869;DHT22;12115;47.128;15.422;2022-11-20T10:44:34;12.30;99.90
23869;DHT22;12115;47.128;15.422;2022-11-20T10:48:42;11.20;99.90
23869;DHT22;12115;47.128;15.422;2022-11-20T10:57:57;9.30;99.90
23869;DHT22;12115;47.128;15.422;2022-11-20T11:01:17;9.20;99.90
23869;DHT22;12115;47.128;15.422;2022-11-20T11:07:47;8.50;99.90
23869;DHT22;12115;47.128;15.422;2022-11-20T11:14:28;8.50;99.90
23869;DHT22;12115;47.128;15.422;2022-11-20T11:17:23;8.50;99.90
23869;DHT22;12115;47.128;15.422;2022-11-20T11:20:25;8.50;99.90
23869;DHT22;12115;47.128;15.422;2022-11-20T11:26:26;8.20;99.90
23869;DHT22;12115;47.128;15.422;2022-11-20T11:29:31;8.10;99.90
23869;DHT22;12115;47.128;15.422;2022-11-20T11:38:43;8.30;99.90
23869;DHT22;12115;47.128;15.422;2022-11-20T11:41:36;8.30;99.90
23869;DHT22;12115;47.128;15.422;2022-11-20T11:44:50;8.40;99.90
23869;DHT22;12115;47.128;15.422;2022-11-20T12:05:23;8.20;99.90
23869;DHT22;12115;47.128;15.422;2022-11-20T12:15:30;8.10;99.90
23869;DHT22;12115;47.128;15.422;2022-11-20T12:25:56;8.20;99.90
23869;DHT22;12115;47.128;15.422;2022-11-20T12:39:28;8.10;99.90
23869;DHT22;12115;47.128;15.422;2022-11-20T12:43:01;8.10;99.90
23869;DHT22;12115;47.128;15.422;2022-11-20T12:59:04;8.10;99.90
23869;DHT22;12115;47.128;15.422;2022-11-20T13:08:45;8.20;99.90
23869;DHT22;12115;47.128;15.422;2022-11-20T13:18:22;8.20;99.90
23869;DHT22;12115;47.128;15.422;2022-11-20T13:24:38;8.30;99.90
23869;DHT22;12115;47.128;15.422;2022-11-20T13:27:47;8.30;99.90
23869;DHT22;12115;47.128;15.422;2022-11-20T13:31:00;8.30;99.90
23869;DHT22;12115;47.128;15.422;2022-11-20T13:34:07;8.30;99.90
23869;DHT22;12115;47.128;15.422;2022-11-20T13:37:34;8.20;99.90
23869;DHT22;12115;47.128;15.422;2022-11-20T14:00:58;8.40;99.90
23869;DHT22;12115;47.128;15.422;2022-11-20T14:04:19;8.50;99.90
23869;DHT22;12115;47.128;15.422;2022-11-20T14:07:16;8.60;99.90
23869;DHT22;12115;47.128;15.422;2022-11-20T14:13:35;8.60;99.90
23869;DHT22;12115;47.128;15.422;2022-11-20T14:16:48;8.50;99.90
23869;DHT22;12115;47.128;15.422;2022-11-20T14:19:41;8.50;99.90
23869;DHT22;12115;47.128;15.422;2022-11-20T14:22:56;8.40;99.90
23869;DHT22;12115;47.128;15.422;2022-11-20T14:26:22;8.30;99.90
23869;DHT22;12115;47.128;15.422;2022-11-20T14:29:28;8.30;99.90
23869;DHT22;12115;47.128;15.422;2022-11-20T14:32:38;8.10;99.90
23869;DHT22;12115;47.128;15.422;2022-11-20T14:35:58;8.10;99.90
23869;DHT22;12115;47.128;15.422;2022-11-20T14:39:09;8.00;99.90
23869;DHT22;12115;47.128;15.422;2022-11-20T14:42:12;7.90;99.90
23869;DHT22;12115;47.128;15.422;2022-11-20T14:45:07;7.80;99.90
23869;DHT22;12115;47.128;15.422;2022-11-20T14:47:58;7.80;99.90
23869;DHT22;12115;47.128;15.422;2022-11-20T14:50:48;7.70;99.90
23869;DHT22;12115;47.128;15.422;2022-11-20T14:53:31;7.70;99.90
23869;DHT22;12115;47.128;15.422;2022-11-20T14:57:01;7.60;99.90
23869;DHT22;12115;47.128;15.422;2022-11-20T15:03:19;7.20;99.90
23869;DHT22;12115;47.128;15.422;2022-11-20T15:06:25;7.10;99.90
23869;DHT22;12115;47.128;15.422;2022-11-20T15:09:30;7.20;99.90
23869;DHT22;12115;47.128;15.422;2022-11-20T15:15:54;7.00;99.90
23869;DHT22;12115;47.128;15.422;2022-11-20T15:19:04;6.90;99.90
23869;DHT22;12115;47.128;15.422;2022-11-20T15:22:12;6.80;99.90
23869;DHT22;12115;47.128;15.422;2022-11-20T15:25:04;6.80;99.90
23869;DHT22;12115;47.128;15.422;2022-11-20T15:31:45;6.70;99.90
23869;DHT22;12115;47.128;15.422;2022-11-20T15:35:05;6.40;99.90
23869;DHT22;12115;47.128;15.422;2022-11-20T15:37:52;6.30;99.90
23869;DHT22;12115;47.128;15.422;2022-11-20T15:40:56;6.30;99.90
23869;DHT22;12115;47.128;15.422;2022-11-20T15:43:56;6.30;99.90
23869;DHT22;12115;47.128;15.422;2022-11-20T15:50:27;6.10;99.90
23869;DHT22;12115;47.128;15.422;2022-11-20T15:53:12;6.00;99.90
23869;DHT22;12115;47.128;15.422;2022-11-20T15:55:56;6.00;99.90
23869;DHT22;12115;47.128;15.422;2022-11-20T15:58:47;5.80;99.90
23869;DHT22;12115;47.128;15.422;2022-11-20T16:01:51;5.60;99.90
23869;DHT22;12115;47.128;15.422;2022-11-20T16:05:00;5.60;99.90
23869;DHT22;12115;47.128;15.422;2022-11-20T16:14:04;5.50;99.90
23869;DHT22;12115;47.128;15.422;2022-11-20T16:17:17;5.50;99.90
23869;DHT22;12115;47.128;15.422;2022-11-20T16:20:21;5.50;99.90
23869;DHT22;12115;47.128;15.422;2022-11-20T16:23:32;5.50;99.90
23869;DHT22;12115;47.128;15.422;2022-11-20T16:26:26;5.40;99.90
23869;DHT22;12115;47.128;15.422;2022-11-20T16:29:36;5.40;99.90
23869;DHT22;12115;47.128;15.422;2022-11-20T16:32:18;5.50;99.90
23869;DHT22;12115;47.128;15.422;2022-11-20T16:35:42;5.50;99.90
23869;DHT22;12115;47.128;15.422;2022-11-20T16:38:38;5.50;99.90
23869;DHT22;12115;47.128;15.422;2022-11-20T16:41:45;5.60;99.90
23869;DHT22;12115;47.128;15.422;2022-11-20T16:44:55;5.60;99.90
23869;DHT22;12115;47.128;15.422;2022-11-20T16:47:57;5.50;99.90
23869;DHT22;12115;47.128;15.422;2022-11-20T16:51:05;5.60;99.90
23869;DHT22;12115;47.128;15.422;2022-11-20T16:53:52;5.60;99.90
23869;DHT22;12115;47.128;15.422;2022-11-20T16:56:56;5.60;99.90
23869;DHT22;12115;47.128;15.422;2022-11-20T17:03:04;5.60;99.90
23869;DHT22;12115;47.128;15.422;2022-11-20T17:06:19;5.70;99.90
23869;DHT22;12115;47.128;15.422;2022-11-20T17:09:12;5.70;99.90
23869;DHT22;12115;47.128;15.422;2022-11-20T17:12:27;5.70;99.90
23869;DHT22;12115;47.128;15.422;2022-11-20T17:15:47;5.70;99.90
23869;DHT22;12115;47.128;15.422;2022-11-20T17:26:35;5.60;99.90
23869;DHT22;12115;47.128;15.422;2022-11-20T17:29:47;5.70;99.90
23869;DHT22;12115;47.128;15.422;2022-11-20T17:32:57;5.70;99.90
23869;DHT22;12115;47.128;15.422;2022-11-20T17:35:43;5.70;99.90
23869;DHT22;12115;47.128;15.422;2022-11-20T17:38:46;5.80;99.90
23869;DHT22;12115;47.128;15.422;2022-11-20T17:41:53;5.80;99.90
23869;DHT22;12115;47.128;15.422;2022-11-20T17:45:28;5.90;99.90
23869;DHT22;12115;47.128;15.422;2022-11-20T17:48:22;5.90;99.90
23869;DHT22;12115;47.128;15.422;2022-11-20T17:51:29;5.90;99.90
23869;DHT22;12115;47.128;15.422;2022-11-20T17:54:59;5.80;99.90
23869;DHT22;12115;47.128;15.422;2022-11-20T17:58:14;5.80;99.90
23869;DHT22;12115;47.128;15.422;2022-11-20T18:02:10;5.80;99.90
23869;DHT22;12115;47.128;15.422;2022-11-20T18:05:19;5.80;99.90
23869;DHT22;12115;47.128;15.422;2022-11-20T18:11:33;5.90;99.90
23869;DHT22;12115;47.128;15.422;2022-11-20T18:14:33;5.90;99.90
23869;DHT22;12115;47.128;15.422;2022-11-20T18:17:19;5.90;99.90
23869;DHT22;12115;47.128;15.422;2022-11-20T18:20:32;5.90;99.90
23869;DHT22;12115;47.128;15.422;2022-11-20T18:23:39;5.90;99.90
23869;DHT22;12115;47.128;15.422;2022-11-20T18:27:02;5.90;99.90
23869;DHT22;12115;47.128;15.422;2022-11-20T18:30:21;5.90;99.90
23869;DHT22;12115;47.128;15.422;2022-11-20T18:33:20;5.80;99.90
23869;DHT22;12115;47.128;15.422;2022-11-20T18:39:39;5.70;99.90
23869;DHT22;12115;47.128;15.422;2022-11-20T18:42:48;5.60;99.90
23869;DHT22;12115;47.128;15.422;2022-11-20T18:46:27;5.50;99.90
23869;DHT22;12115;47.128;15.422;2022-11-20T18:50:15;5.50;99.90
23869;DHT22;12115;47.128;15.422;2022-11-20T18:53:19;5.50;99.90
23869;DHT22;12115;47.128;15.422;2022-11-20T18:56:32;5.30;99.90
23869;DHT22;12115;47.128;15.422;2022-11-20T18:59:42;5.30;99.90
23869;DHT22;12115;47.128;15.422;2022-11-20T19:03:10;5.10;99.90
23869;DHT22;12115;47.128;15.422;2022-11-20T19:06:52;5.10;99.90
23869;DHT22;12115;47.128;15.422;2022-11-20T19:10:19;5.00;99.90
23869;DHT22;12115;47.128;15.422;2022-11-20T19:14:00;4.90;99.90
23869;DHT22;12115;47.128;15.422;2022-11-20T19:17:10;4.90;99.90
23869;DHT22;12115;47.128;15.422;2022-11-20T19:20:44;4.80;99.90
23869;DHT22;12115;47.128;15.422;2022-11-20T19:23:33;4.70;99.90
23869;DHT22;12115;47.128;15.422;2022-11-20T19:27:11;4.70;99.90
23869;DHT22;12115;47.128;15.422;2022-11-20T19:30:24;4.60;99.90
23869;DHT22;12115;47.128;15.422;2022-11-20T19:37:02;4.40;99.90
23869;DHT22;12115;47.128;15.422;2022-11-20T19:40:16;4.30;99.90
23869;DHT22;12115;47.128;15.422;2022-11-20T19:46:17;4.30;99.90
23869;DHT22;12115;47.128;15.422;2022-11-20T19:49:26;4.40;99.90
23869;DHT22;12115;47.128;15.422;2022-11-20T19:56:10;4.20;99.90
23869;DHT22;12115;47.128;15.422;2022-11-20T19:59:05;4.20;99.90
23869;DHT22;12115;47.128;15.422;2022-11-20T20:06:07;4.20;99.90
23869;DHT22;12115;47.128;15.422;2022-11-20T20:09:10;4.20;99.90
23869;DHT22;12115;47.128;15.422;2022-11-20T20:12:19;4.20;99.90
23869;DHT22;12115;47.128;15.422;2022-11-20T20:14:58;4.10;99.90
23869;DHT22;12115;47.128;15.422;2022-11-20T20:21:11;4.10;99.90
23869;DHT22;12115;47.128;15.422;2022-11-20T20:24:11;4.10;99.90
23869;DHT22;12115;47.128;15.422;2022-11-20T20:27:06;4.10;99.90
23869;DHT22;12115;47.128;15.422;2022-11-20T20:30:17;4.00;99.90
23869;DHT22;12115;47.128;15.422;2022-11-20T20:33:32;3.90;99.90
23869;DHT22;12115;47.128;15.422;2022-11-20T20:36:15;3.90;99.90
23869;DHT22;12115;47.128;15.422;2022-11-20T20:39:04;3.90;99.90
23869;DHT22;12115;47.128;15.422;2022-11-20T20:42:04;3.90;99.90
23869;DHT22;12115;47.128;15.422;2022-11-20T20:45:12;3.90;99.90
23869;DHT22;12115;47.128;15.422;2022-11-20T20:48:51;3.90;99.90
23869;DHT22;12115;47.128;15.422;2022-11-20T20:51:53;3.90;99.90
23869;DHT22;12115;47.128;15.422;2022-11-20T20:54:57;3.80;99.90
23869;DHT22;12115;47.128;15.422;2022-11-20T20:57:51;3.70;99.90
23869;DHT22;12115;47.128;15.422;2022-11-20T21:01:10;3.70;99.90
23869;DHT22;12115;47.128;15.422;2022-11-20T21:04:44;3.70;99.90
23869;DHT22;12115;47.128;15.422;2022-11-20T21:07:32;3.70;99.90
23869;DHT22;12115;47.128;15.422;2022-11-20T21:10:14;3.70;99.90
23869;DHT22;12115;47.128;15.422;2022-11-20T21:13:19;3.80;99.90
23869;DHT22;12115;47.128;15.422;2022-11-20T21:16:21;3.80;99.90
23869;DHT22;12115;47.128;15.422;2022-11-20T21:19:32;3.80;99.90
23869;DHT22;12115;47.128;15.422;2022-11-20T21:23:11;3.70;99.90
23869;DHT22;12115;47.128;15.422;2022-11-20T21:26:47;3.80;99.90
23869;DHT22;12115;47.128;15.422;2022-11-20T21:29:41;3.80;99.90
23869;DHT22;12115;47.128;15.422;2022-11-20T21:38:57;3.90;99.90
23869;DHT22;12115;47.128;15.422;2022-11-20T21:42:29;3.90;99.90
23869;DHT22;12115;47.128;15.422;2022-11-20T21:45:43;3.80;99.90
23869;DHT22;12115;47.128;15.422;2022-11-20T21:48:27;3.80;99.90
23869;DHT22;12115;47.128;15.422;2022-11-20T21:51:35;3.80;99.90
23869;DHT22;12115;47.128;15.422;2022-11-20T21:57:53;3.80;99.90
23869;DHT22;12115;47.128;15.422;2022-11-20T22:00:53;3.80;99.90
23869;DHT22;12115;47.128;15.422;2022-11-20T22:04:42;3.90;99.90
23869;DHT22;12115;47.128;15.422;2022-11-20T22:07:31;3.90;99.90
23869;DHT22;12115;47.128;15.422;2022-11-20T22:10:30;3.90;99.90
23869;DHT22;12115;47.128;15.422;2022-11-20T22:13:29;3.90;99.90
23869;DHT22;12115;47.128;15.422;2022-11-20T22:17:05;3.90;99.90
23869;DHT22;12115;47.128;15.422;2022-11-20T22:19:51;3.90;99.90
23869;DHT22;12115;47.128;15.422;2022-11-20T22:22:47;3.90;99.90
23869;DHT22;12115;47.128;15.422;2022-11-20T22:26:00;4.00;99.90
23869;DHT22;12115;47.128;15.422;2022-11-20T22:29:40;3.90;99.90
23869;DHT22;12115;47.128;15.422;2022-11-20T22:32:28;4.00;99.90
23869;DHT22;12115;47.128;15.422;2022-11-20T22:35:30;4.00;99.90
23869;DHT22;12115;47.128;15.422;2022-11-20T22:38:32;4.00;99.90
23869;DHT22;12115;47.128;15.422;2022-11-20T22:44:53;4.00;99.90
23869;DHT22;12115;47.128;15.422;2022-11-20T22:48:21;4.00;99.90
23869;DHT22;12115;47.128;15.422;2022-11-20T22:51:20;3.90;99.90
23869;DHT22;12115;47.128;15.422;2022-11-20T22:54:15;3.90;99.90
23869;DHT22;12115;47.128;15.422;2022-11-20T22:57:12;3.90;99.90
23869;DHT22;12115;47.128;15.422;2022-11-20T23:00:06;3.90;99.90
23869;DHT22;12115;47.128;15.422;2022-11-20T23:03:14;3.90;99.90
23869;DHT22;12115;47.128;15.422;2022-11-20T23:06:29;3.80;99.90
23869;DHT22;12115;47.128;15.422;2022-11-20T23:10:17;3.80;99.90
23869;DHT22;12115;47.128;15.422;2022-11-20T23:13:15;3.90;99.90
23869;DHT22;12115;47.128;15.422;2022-11-20T23:16:29;3.90;99.90
23869;DHT22;12115;47.128;15.422;2022-11-20T23:19:16;3.80;99.90
23869;DHT22;12115;47.128;15.422;2022-11-20T23:25:40;3.70;99.90
23869;DHT22;12115;47.128;15.422;2022-11-20T23:28:46;3.60;99.90
23869;DHT22;12115;47.128;15.422;2022-11-20T23:32:16;3.60;99.90
23869;DHT22;12115;47.128;15.422;2022-11-20T23:35:01;3.50;99.90
23869;DHT22;12115;47.128;15.422;2022-11-20T23:38:16;3.50;99.90
23869;DHT22;12115;47.128;15.422;2022-11-20T23:41:05;3.60;99.90
23869;DHT22;12115;47.128;15.422;2022-11-20T23:47:50;3.40;99.90
23869;DHT22;12115;47.128;15.422;2022-11-20T23:50:55;3.40;99.90
23869;DHT22;12115;47.128;15.422;2022-11-20T23:54:15;3.50;99.90